Time;durP1;ratioP1;P1;durP2;ratioP2;P2;SDS_P1;SDS_P2;PMS_P1;PMS_P2;Temp;Humidity;BMP_temperature;BMP_pressure;BME280_temperature;BME280_humidity;BME280_pressure;Samples;Min_cycle;Max_cycle;Signal;HPM_P1;HPM_P2
2022/01/30 00:01:15;;;;;;;;;;;;;;;23.93;24.09;99876.97;4972223;28;1287;-76
2022/01/30 00:03:41;;;;;;;;;;;;;;;23.20;24.51;99874.78;4971119;28;1279;-79
2022/01/30 00:06:08;;;;;;;;;;;;;;;25.31;22.88;99873.28;4974187;28;967;-75
2022/01/30 00:08:34;;;;;;;;;;;;;;;23.83;24.49;99892.19;4981973;28;987;-77
2022/01/30 00:11:10;;;;;;;;;;;;;;;23.81;24.49;99858.34;4972406;28;1393;-77
2022/01/30 00:13:37;;;;;;;;;;;;;;;24.40;23.64;99882.72;4972518;28;814;-77
2022/01/30 00:16:06;;;;;;;;;;;;;;;22.20;25.12;99873.63;4970189;28;1063;-78
2022/01/30 00:18:50;;;;;;;;;;;;;;;24.79;23.19;99891.50;4971855;28;1907;-74
2022/01/30 00:21:29;;;;;;;;;;;;;;;25.24;23.15;99873.41;4971591;28;1313;-76
2022/01/30 00:24:01;;;;;;;;;;;;;;;22.93;24.87;99851.19;4972465;28;877;-77
2022/01/30 00:26:31;;;;;;;;;;;;;;;22.94;25.45;99889.69;4971901;28;1115;-77
2022/01/30 00:28:58;;;;;;;;;;;;;;;24.53;24.54;99876.97;4971399;28;975;-79
2022/01/30 00:31:26;;;;;;;;;;;;;;;23.23;25.62;99896.47;4970456;28;1396;-75
2022/01/30 00:33:52;;;;;;;;;;;;;;;22.54;25.63;99866.00;4971670;28;1026;-76
2022/01/30 00:36:18;;;;;;;;;;;;;;;23.43;25.38;99877.97;4971675;28;769;-74
2022/01/30 00:38:45;;;;;;;;;;;;;;;22.89;26.23;99878.47;4972964;28;1981;-78
2022/01/30 00:41:12;;;;;;;;;;;;;;;23.61;25.11;99880.75;4989854;28;1542;-77
2022/01/30 00:43:40;;;;;;;;;;;;;;;25.21;23.61;99860.88;4972351;28;1151;-75
2022/01/30 00:46:06;;;;;;;;;;;;;;;23.70;25.00;99850.78;4990499;28;801;-74
2022/01/30 00:48:32;;;;;;;;;;;;;;;22.73;25.32;99853.06;4989805;28;1006;-76
2022/01/30 00:50:59;;;;;;;;;;;;;;;23.10;25.46;99866.13;4990255;28;1387;-75
2022/01/30 00:53:26;;;;;;;;;;;;;;;24.34;23.62;99853.13;4989981;28;955;-76
2022/01/30 00:55:52;;;;;;;;;;;;;;;24.04;23.42;99831.84;4989484;28;1011;-76
2022/01/30 00:58:18;;;;;;;;;;;;;;;23.89;24.50;99848.88;4991035;28;1967;-75
2022/01/30 01:00:46;;;;;;;;;;;;;;;24.71;23.34;99853.00;4991126;28;1035;-75
2022/01/30 01:03:12;;;;;;;;;;;;;;;25.28;22.97;99857.97;4990851;28;1405;-77
2022/01/30 01:05:39;;;;;;;;;;;;;;;25.33;22.95;99869.16;4989485;28;872;-74
2022/01/30 01:08:13;;;;;;;;;;;;;;;25.29;23.96;99872.69;4990031;28;890;-76
2022/01/30 01:10:44;;;;;;;;;;;;;;;24.34;24.15;99873.38;4990003;28;1222;-75
2022/01/30 01:13:23;;;;;;;;;;;;;;;22.29;26.99;99890.81;4990181;28;1344;-75
2022/01/30 01:24:06;;;;;;;;;;;;;;;23.77;26.93;99884.81;4992819;28;750;-74
2022/01/30 01:26:34;;;;;;;;;;;;;;;22.61;27.39;99882.53;4994670;28;1011;-75
2022/01/30 01:29:00;;;;;;;;;;;;;;;22.92;26.57;99860.59;4993330;28;913;-73
2022/01/30 01:31:28;;;;;;;;;;;;;;;21.89;27.80;99858.72;4993705;28;1334;-73
2022/01/30 01:34:08;;;;;;;;;;;;;;;23.20;26.60;99857.34;4993328;28;1028;-76
2022/01/30 01:36:34;;;;;;;;;;;;;;;24.24;25.29;99850.94;4993123;28;1153;-75
2022/01/30 01:39:01;;;;;;;;;;;;;;;24.77;24.00;99857.59;4994173;28;1910;-74
2022/01/30 01:41:29;;;;;;;;;;;;;;;25.29;23.66;99850.47;4992770;28;1316;-74
2022/01/30 01:43:56;;;;;;;;;;;;;;;24.63;23.70;99856.16;4993991;28;1106;-73
2022/01/30 01:46:26;;;;;;;;;;;;;;;24.65;24.08;99851.19;4992812;28;828;-72
2022/01/30 01:48:54;;;;;;;;;;;;;;;22.85;25.87;99830.19;4993075;28;900;-74
2022/01/30 01:51:21;;;;;;;;;;;;;;;24.90;23.71;99849.03;4994114;28;1333;-75
2022/01/30 01:53:49;;;;;;;;;;;;;;;24.02;24.56;99848.69;4976398;28;1026;-77
2022/01/30 01:56:16;;;;;;;;;;;;;;;23.89;24.81;99854.41;4992448;28;975;-77
2022/01/30 01:58:47;;;;;;;;;;;;;;;24.06;24.46;99833.31;4992915;28;1973;-77
2022/01/30 02:01:29;;;;;;;;;;;;;;;23.64;25.64;99851.75;4993748;28;1370;-77
2022/01/30 02:03:57;;;;;;;;;;;;;;;23.21;25.92;99814.72;4992789;28;1085;-76
2022/01/30 02:06:25;;;;;;;;;;;;;;;23.43;24.99;99841.97;4992456;28;1159;-78
2022/01/30 02:08:54;;;;;;;;;;;;;;;23.41;25.36;99842.22;4976545;28;964;-75
2022/01/30 02:11:31;;;;;;;;;;;;;;;24.18;25.38;99849.13;4976102;28;1341;-75
2022/01/30 02:14:31;;;;;;;;;;;;;;;23.92;25.71;99881.66;4992786;28;757;-75
2022/01/30 02:25:25;;;;;;;;;;;;;;;23.40;26.57;99838.59;4992446;28;968;-76
2022/01/30 02:27:56;;;;;;;;;;;;;;;23.86;26.10;99844.59;4976157;28;1029;-76
2022/01/30 02:30:25;;;;;;;;;;;;;;;24.46;25.24;99840.13;4985205;28;1456;-76
2022/01/30 02:32:51;;;;;;;;;;;;;;;24.64;25.12;99855.91;4972779;28;1277;-75
2022/01/30 02:35:18;;;;;;;;;;;;;;;24.37;25.27;99847.09;4972457;28;987;-73
2022/01/30 02:37:47;;;;;;;;;;;;;;;24.35;25.54;99832.66;4972292;28;805;-74
2022/01/30 02:40:14;;;;;;;;;;;;;;;23.29;26.70;99838.50;4956432;28;2004;-76
2022/01/30 02:42:46;;;;;;;;;;;;;;;23.22;25.82;99806.22;4972317;28;1393;-74
2022/01/30 02:45:14;;;;;;;;;;;;;;;24.09;25.38;99825.56;4972441;28;987;-77
2022/01/30 02:47:53;;;;;;;;;;;;;;;25.17;23.96;99826.31;4956455;28;1141;-76
2022/01/30 02:50:32;;;;;;;;;;;;;;;23.98;24.55;99807.84;4972662;28;1270;-76
2022/01/30 02:53:04;;;;;;;;;;;;;;;22.85;26.63;99784.03;4972344;28;1499;-74
2022/01/30 02:55:30;;;;;;;;;;;;;;;23.69;25.79;99796.47;4972314;28;1018;-74
2022/01/30 02:57:57;;;;;;;;;;;;;;;24.47;25.21;99811.34;4972581;28;814;-74
2022/01/30 03:00:23;;;;;;;;;;;;;;;23.95;26.09;99824.94;4956148;28;1239;-76
2022/01/30 03:02:49;;;;;;;;;;;;;;;24.26;24.73;99826.59;4956243;28;1340;-75
2022/01/30 03:05:16;;;;;;;;;;;;;;;23.53;25.04;99804.34;4971879;28;1038;-74
2022/01/30 03:07:43;;;;;;;;;;;;;;;22.46;25.78;99830.34;4956044;28;1199;-75
2022/01/30 03:10:11;;;;;;;;;;;;;;;23.62;24.56;99802.09;4955623;28;1058;-78
2022/01/30 03:12:38;;;;;;;;;;;;;;;22.98;25.04;99784.94;4972144;28;1362;-74
2022/01/30 03:15:05;;;;;;;;;;;;;;;22.89;25.12;99789.94;4971663;28;741;-75
2022/01/30 03:17:32;;;;;;;;;;;;;;;20.97;26.29;99773.25;4971875;28;932;-75
2022/01/30 03:19:58;;;;;;;;;;;;;;;21.10;26.29;99733.75;4973042;28;1920;-75
2022/01/30 03:22:25;;;;;;;;;;;;;;;21.61;26.04;99778.97;4972935;28;1406;-76
2022/01/30 03:24:52;;;;;;;;;;;;;;;22.30;25.28;99792.13;4971797;28;995;-75
2022/01/30 03:27:30;;;;;;;;;;;;;;;22.17;25.05;99773.75;4971629;28;1613;-76
2022/01/30 03:30:04;;;;;;;;;;;;;;;22.84;24.29;99753.81;4971605;28;1155;-73
2022/01/30 03:32:57;;;;;;;;;;;;;;;23.59;23.45;99790.66;4971178;28;1306;-73
2022/01/30 03:35:24;;;;;;;;;;;;;;;22.03;25.11;99789.56;4971600;28;1216;-76
2022/01/30 03:37:51;;;;;;;;;;;;;;;23.33;23.25;99795.44;4971220;28;995;-75
2022/01/30 03:40:18;;;;;;;;;;;;;;;24.34;22.32;99783.81;4955395;28;1993;-76
2022/01/30 03:42:46;;;;;;;;;;;;;;;22.48;23.96;99755.44;4971052;28;1463;-74
2022/01/30 03:45:15;;;;;;;;;;;;;;;24.67;22.15;99757.47;4954875;28;1325;-76
2022/01/30 03:47:42;;;;;;;;;;;;;;;22.43;24.47;99769.09;4971416;28;1176;-76
2022/01/30 03:50:11;;;;;;;;;;;;;;;22.39;24.50;99782.53;4971059;28;1326;-76
2022/01/30 03:52:37;;;;;;;;;;;;;;;22.05;25.24;99766.16;4971450;28;1315;-75
2022/01/30 03:55:04;;;;;;;;;;;;;;;22.63;23.73;99755.09;4954665;28;901;-76
2022/01/30 03:57:30;;;;;;;;;;;;;;;21.92;25.45;99769.03;4971160;28;885;-75
2022/01/30 03:59:58;;;;;;;;;;;;;;;23.11;24.51;99768.19;4971121;28;1967;-75
2022/01/30 04:02:24;;;;;;;;;;;;;;;23.27;23.86;99780.59;4970597;28;1404;-75
2022/01/30 04:04:50;;;;;;;;;;;;;;;24.03;23.16;99785.81;4954683;28;1473;-76
2022/01/30 04:07:17;;;;;;;;;;;;;;;24.09;23.23;99787.59;4971056;28;1002;-74
2022/01/30 04:09:49;;;;;;;;;;;;;;;21.88;25.59;99774.13;4972030;28;1055;-74
2022/01/30 04:12:42;;;;;;;;;;;;;;;22.45;25.17;99789.94;4970018;28;1331;-76
2022/01/30 04:15:21;;;;;;;;;;;;;;;24.61;22.67;99772.28;4970469;28;1043;-76
2022/01/30 04:18:12;;;;;;;;;;;;;;;22.71;24.42;99766.69;4971098;28;1062;-74
2022/01/30 04:20:57;;;;;;;;;;;;;;;23.56;23.31;99773.41;4969950;28;1413;-76
2022/01/30 04:23:41;;;;;;;;;;;;;;;24.13;22.71;99775.00;4970836;28;1082;-76
2022/01/30 04:26:24;;;;;;;;;;;;;;;23.29;23.56;99758.22;4956835;28;1506;-75
2022/01/30 04:29:09;;;;;;;;;;;;;;;23.39;23.43;99798.13;4970764;28;948;-77
2022/01/30 04:32:14;;;;;;;;;;;;;;;24.17;23.08;99822.47;4973849;28;1977;-73
2022/01/30 04:34:59;;;;;;;;;;;;;;;25.32;21.91;99827.75;4989081;28;1171;-74
2022/01/30 04:37:57;;;;;;;;;;;;;;;21.59;25.75;99808.72;4991298;28;1262;-75
2022/01/30 04:40:49;;;;;;;;;;;;;;;21.47;25.63;99808.53;4990053;28;1914;-77
2022/01/30 04:52:50;;;;;;;;;;;;;;;21.89;25.40;99844.91;4990241;28;1332;-74
2022/01/30 04:58:46;;;;;;;;;;;;;;;21.15;25.56;99822.22;4958024;28;1914;-75
2022/01/30 05:01:50;;;;;;;;;;;;;;;24.76;22.37;99855.91;4993806;28;1333;-75
2022/01/30 05:04:50;;;;;;;;;;;;;;;23.72;23.26;99843.13;4993714;28;1078;-75
2022/01/30 05:07:40;;;;;;;;;;;;;;;21.53;25.52;99859.28;4984916;28;1161;-76
2022/01/30 05:10:12;;;;;;;;;;;;;;;22.38;24.70;99852.69;4993954;28;1164;-77
2022/01/30 05:13:18;;;;;;;;;;;;;;;22.13;25.68;99836.91;4976895;28;1417;-78
2022/01/30 05:16:02;;;;;;;;;;;;;;;23.30;25.39;99854.03;4993552;28;837;-73
2022/01/30 05:18:39;;;;;;;;;;;;;;;22.56;26.03;99847.25;4993535;28;1978;-74
2022/01/30 05:21:23;;;;;;;;;;;;;;;23.10;24.82;99838.44;4993479;28;1417;-75
2022/01/30 05:23:58;;;;;;;;;;;;;;;24.16;23.56;99831.84;4993400;28;797;-74
2022/01/30 05:27:03;;;;;;;;;;;;;;;23.71;23.62;99825.63;4982339;28;1382;-75
2022/01/30 05:29:56;;;;;;;;;;;;;;;24.40;22.36;99817.00;4978156;28;1198;-75
2022/01/30 05:32:41;;;;;;;;;;;;;;;25.05;22.63;99828.28;4994039;28;1358;-74
2022/01/30 05:35:16;;;;;;;;;;;;;;;22.42;24.39;99823.53;4993870;28;1074;-80
2022/01/30 05:38:03;;;;;;;;;;;;;;;22.49;24.37;99817.94;4992630;28;1356;-75
2022/01/30 05:40:52;;;;;;;;;;;;;;;24.18;23.15;99832.47;4994034;28;1922;-74
2022/01/30 05:43:46;;;;;;;;;;;;;;;22.79;24.15;99851.31;4993026;28;1206;-75
2022/01/30 05:46:31;;;;;;;;;;;;;;;22.68;24.93;99838.22;4993073;28;1015;-75
2022/01/30 05:49:18;;;;;;;;;;;;;;;22.55;24.92;99847.47;4992493;28;1213;-74
2022/01/30 05:52:04;;;;;;;;;;;;;;;22.40;24.94;99803.56;4994182;28;1410;-75
2022/01/30 05:54:38;;;;;;;;;;;;;;;22.15;25.33;99815.41;4992453;28;1003;-75
2022/01/30 05:57:04;;;;;;;;;;;;;;;23.32;24.40;99824.22;4992645;28;1154;-74
2022/01/30 05:59:33;;;;;;;;;;;;;;;23.64;24.22;99815.75;4992697;28;1911;-75
2022/01/30 06:02:16;;;;;;;;;;;;;;;22.81;24.83;99806.81;4976401;28;1335;-74
2022/01/30 06:04:43;;;;;;;;;;;;;;;22.17;24.83;99788.41;4991360;28;1094;-73
2022/01/30 06:07:11;;;;;;;;;;;;;;;20.73;25.31;99807.88;4992455;28;995;-76
2022/01/30 06:09:39;;;;;;;;;;;;;;;22.27;24.79;99811.94;4992393;28;940;-75
2022/01/30 06:12:06;;;;;;;;;;;;;;;25.37;21.49;99811.25;4992359;28;1299;-75
2022/01/30 06:14:34;;;;;;;;;;;;;;;24.10;22.46;99822.56;4975911;28;1156;-74
2022/01/30 06:17:06;;;;;;;;;;;;;;;21.23;25.49;99830.28;4992420;28;817;-75
2022/01/30 06:19:55;;;;;;;;;;;;;;;21.65;24.22;99818.88;4993468;28;1887;-75
2022/01/30 06:22:40;;;;;;;;;;;;;;;22.39;24.13;99830.38;4993279;28;1441;-75
2022/01/30 06:25:34;;;;;;;;;;;;;;;23.45;22.72;99814.88;4993200;28;1100;-76
2022/01/30 06:28:19;;;;;;;;;;;;;;;23.71;22.19;99824.78;4993755;28;988;-77
2022/01/30 06:31:04;;;;;;;;;;;;;;;24.33;22.02;99821.81;4978261;28;1445;-75
2022/01/30 06:33:56;;;;;;;;;;;;;;;22.64;23.78;99809.34;4973829;28;1003;-74
2022/01/30 06:36:41;;;;;;;;;;;;;;;23.04;23.01;99822.78;4974687;28;917;-75
2022/01/30 06:39:36;;;;;;;;;;;;;;;23.72;22.54;99851.44;4956686;28;1907;-73
2022/01/30 06:42:15;;;;;;;;;;;;;;;23.91;22.08;99830.09;4971873;28;1407;-75
2022/01/30 06:45:00;;;;;;;;;;;;;;;24.57;21.93;99833.78;4973682;28;1162;-75
2022/01/30 06:47:45;;;;;;;;;;;;;;;24.30;22.08;99849.16;4975822;28;920;-73
2022/01/30 06:50:30;;;;;;;;;;;;;;;24.78;21.16;99870.38;4973284;28;998;-77
2022/01/30 06:53:17;;;;;;;;;;;;;;;23.68;22.97;99847.44;4973919;28;1452;-77
2022/01/30 06:56:03;;;;;;;;;;;;;;;23.83;22.67;99874.72;4986773;28;1329;-76
2022/01/30 06:58:51;;;;;;;;;;;;;;;23.05;23.04;99880.66;4977979;28;809;-77
2022/01/30 07:01:48;;;;;;;;;;;;;;;22.84;23.23;99884.69;4987258;28;1499;-75
2022/01/30 07:04:34;;;;;;;;;;;;;;;23.74;22.59;99907.44;4992577;28;1469;-75
2022/01/30 07:07:19;;;;;;;;;;;;;;;23.57;22.06;99885.91;4991681;28;1683;-76
2022/01/30 07:09:47;;;;;;;;;;;;;;;24.36;21.44;99893.41;4994123;28;1161;-78
2022/01/30 07:12:13;;;;;;;;;;;;;;;23.12;22.10;99882.53;5004462;28;1730;-75
2022/01/30 07:14:40;;;;;;;;;;;;;;;23.14;22.35;99917.22;4990800;28;1660;-77
2022/01/30 07:17:07;;;;;;;;;;;;;;;22.32;23.55;99906.09;4991534;28;1739;-75
2022/01/30 07:19:33;;;;;;;;;;;;;;;22.93;23.80;99906.53;4993111;28;1978;-76
2022/01/30 07:22:00;;;;;;;;;;;;;;;23.78;22.51;99924.44;4992793;28;1727;-78
2022/01/30 07:24:26;;;;;;;;;;;;;;;24.96;21.79;99941.59;4993349;28;1744;-78
2022/01/30 07:26:52;;;;;;;;;;;;;;;24.95;21.44;99969.56;4991985;28;1633;-77
2022/01/30 07:29:18;;;;;;;;;;;;;;;21.99;23.84;99940.28;4976124;28;1652;-76
2022/01/30 07:31:46;;;;;;;;;;;;;;;24.70;21.52;99976.16;4992972;28;1652;-78
2022/01/30 07:34:12;;;;;;;;;;;;;;;23.77;22.44;99972.59;4992797;28;1707;-77
2022/01/30 07:36:39;;;;;;;;;;;;;;;23.41;22.96;99980.66;4992505;28;1746;-78
2022/01/30 07:39:07;;;;;;;;;;;;;;;23.79;22.32;99976.84;4992978;28;1668;-78
2022/01/30 07:41:33;;;;;;;;;;;;;;;22.83;23.53;99982.56;4976623;28;1922;-76
2022/01/30 07:44:00;;;;;;;;;;;;;;;23.89;22.88;99990.19;4993302;28;1711;-76
2022/01/30 07:46:28;;;;;;;;;;;;;;;24.26;21.98;99994.88;4993148;28;1046;-77
2022/01/30 07:48:56;;;;;;;;;;;;;;;24.47;22.54;100010.19;4994830;28;1682;-78
2022/01/30 07:51:23;;;;;;;;;;;;;;;24.40;22.72;100021.38;5007259;28;1761;-77
2022/01/30 07:53:49;;;;;;;;;;;;;;;23.74;23.38;100021.00;4974514;28;1527;-74
2022/01/30 07:56:16;;;;;;;;;;;;;;;24.46;22.72;100030.69;4972734;28;1376;-76
2022/01/30 07:58:42;;;;;;;;;;;;;;;24.78;23.34;100038.81;4984292;28;1391;-75
2022/01/30 08:01:08;;;;;;;;;;;;;;;22.39;24.77;100034.09;4992747;28;1914;-76
2022/01/30 08:03:35;;;;;;;;;;;;;;;23.50;24.37;100039.34;4990383;28;876;-75
2022/01/30 08:06:02;;;;;;;;;;;;;;;23.68;23.97;100056.03;4991468;28;1479;-74
2022/01/30 08:08:28;;;;;;;;;;;;;;;22.96;24.76;100050.81;4998493;28;892;-77
2022/01/30 08:10:55;;;;;;;;;;;;;;;22.93;24.43;100051.25;4980020;28;1589;-73
2022/01/30 08:13:21;;;;;;;;;;;;;;;24.31;23.38;100061.59;4972034;28;1017;-75
2022/01/30 08:15:47;;;;;;;;;;;;;;;22.32;25.48;100077.47;4981094;28;1506;-75
2022/01/30 08:18:13;;;;;;;;;;;;;;;22.69;24.61;100097.16;4977022;28;1546;-75
2022/01/30 08:20:42;;;;;;;;;;;;;;;23.85;23.06;100085.91;4972169;28;1914;-75
2022/01/30 08:23:12;;;;;;;;;;;;;;;25.02;21.77;100073.03;4975842;28;1621;-74
2022/01/30 08:25:39;;;;;;;;;;;;;;;26.06;21.04;100077.34;4988607;28;1693;-73
2022/01/30 08:28:06;;;;;;;;;;;;;;;20.99;25.59;100084.72;4985726;28;1471;-76
2022/01/30 08:30:33;;;;;;;;;;;;;;;22.47;23.67;100057.88;4990337;28;1675;-73
2022/01/30 08:32:59;;;;;;;;;;;;;;;23.60;23.31;100085.91;4988190;28;1463;-73
2022/01/30 08:35:26;;;;;;;;;;;;;;;24.57;22.27;100088.13;4971543;28;1566;-74
2022/01/30 08:37:53;;;;;;;;;;;;;;;20.49;25.14;100058.25;4976416;28;1438;-75
2022/01/30 08:40:21;;;;;;;;;;;;;;;23.72;22.45;100109.06;4981191;28;1969;-75
2022/01/30 08:42:48;;;;;;;;;;;;;;;23.81;22.87;100118.78;4971422;28;1530;-75
2022/01/30 08:45:15;;;;;;;;;;;;;;;23.29;22.68;100116.22;4980830;28;1550;-76
2022/01/30 08:47:41;;;;;;;;;;;;;;;24.45;21.49;100137.97;4989652;28;1602;-75
2022/01/30 08:50:08;;;;;;;;;;;;;;;24.02;22.00;100152.72;4991554;28;1055;-74
2022/01/30 08:52:34;;;;;;;;;;;;;;;22.83;23.69;100140.25;4990089;28;1462;-74
2022/01/30 08:55:01;;;;;;;;;;;;;;;23.60;22.03;100120.03;4990886;28;1499;-76
2022/01/30 08:57:29;;;;;;;;;;;;;;;24.68;21.93;100148.44;4990950;28;785;-76
2022/01/30 08:59:57;;;;;;;;;;;;;;;24.72;21.06;100149.66;4990148;28;1922;-75
2022/01/30 09:02:24;;;;;;;;;;;;;;;23.31;23.00;100163.88;4972292;28;1719;-75
2022/01/30 09:04:50;;;;;;;;;;;;;;;21.64;23.99;100172.56;4971419;28;730;-75
2022/01/30 09:07:16;;;;;;;;;;;;;;;24.12;21.81;100177.13;4988924;28;1550;-73
2022/01/30 09:09:43;;;;;;;;;;;;;;;24.58;21.11;100178.59;4991728;28;988;-76
2022/01/30 09:12:09;;;;;;;;;;;;;;;24.14;21.36;100192.47;4991190;28;1419;-74
2022/01/30 09:14:39;;;;;;;;;;;;;;;23.70;21.59;100177.69;4973857;28;1538;-74
2022/01/30 09:17:11;;;;;;;;;;;;;;;23.92;21.76;100185.63;4971600;28;1598;-74
2022/01/30 09:19:38;;;;;;;;;;;;;;;23.58;21.51;100166.47;4971812;28;1527;-75
2022/01/30 09:22:04;;;;;;;;;;;;;;;22.98;22.16;100191.72;4979157;28;1984;-75
2022/01/30 09:24:30;;;;;;;;;;;;;;;24.41;21.19;100211.63;4986822;28;1628;-72
2022/01/30 09:26:57;;;;;;;;;;;;;;;24.68;20.77;100216.91;4990453;28;1522;-73
2022/01/30 09:29:23;;;;;;;;;;;;;;;24.79;21.40;100227.28;4995047;28;1511;-75
2022/01/30 09:31:51;;;;;;;;;;;;;;;23.65;21.84;100242.09;4980471;28;1499;-79
2022/01/30 09:34:17;;;;;;;;;;;;;;;25.20;20.59;100247.91;4974430;28;1433;-73
2022/01/30 09:36:43;;;;;;;;;;;;;;;24.33;21.01;100250.75;4971947;28;1490;-74
2022/01/30 09:39:09;;;;;;;;;;;;;;;25.04;20.76;100259.63;4978702;28;1577;-75
2022/01/30 09:41:36;;;;;;;;;;;;;;;25.33;20.22;100263.53;4978775;28;1914;-75
2022/01/30 09:44:02;;;;;;;;;;;;;;;22.73;22.18;100267.16;4975172;28;1511;-75
2022/01/30 09:46:29;;;;;;;;;;;;;;;21.51;24.18;100259.81;4974862;28;899;-76
2022/01/30 09:48:58;;;;;;;;;;;;;;;23.02;22.78;100285.16;4987912;28;1538;-75
2022/01/30 09:51:24;;;;;;;;;;;;;;;21.42;23.56;100283.16;4994364;28;1246;-73
2022/01/30 09:53:51;;;;;;;;;;;;;;;24.79;21.28;100277.22;4983317;28;1546;-77
2022/01/30 09:56:18;;;;;;;;;;;;;;;23.08;22.38;100287.03;4982820;28;1581;-76
2022/01/30 09:58:45;;;;;;;;;;;;;;;23.61;22.31;100289.81;4996152;28;917;-76
2022/01/30 10:01:11;;;;;;;;;;;;;;;23.49;21.56;100276.69;4988683;28;1988;-76
2022/01/30 10:03:37;;;;;;;;;;;;;;;23.89;21.39;100275.59;4974058;28;1318;-75
2022/01/30 10:06:07;;;;;;;;;;;;;;;22.99;22.35;100301.34;4977588;28;1518;-74
2022/01/30 10:08:41;;;;;;;;;;;;;;;23.73;21.26;100288.91;4993765;28;1506;-75
2022/01/30 10:11:26;;;;;;;;;;;;;;;25.88;19.75;100320.13;4979101;28;1444;-74
2022/01/30 10:14:01;;;;;;;;;;;;;;;24.92;19.99;100311.47;4978754;28;2105;-75
2022/01/30 10:16:28;;;;;;;;;;;;;;;25.89;19.73;100339.34;4989719;28;1490;-75
2022/01/30 10:18:54;;;;;;;;;;;;;;;24.82;20.71;100346.13;4988633;28;1443;-75
2022/01/30 10:21:22;;;;;;;;;;;;;;;25.77;19.77;100355.13;4988188;28;1965;-77
2022/01/30 10:23:48;;;;;;;;;;;;;;;24.90;20.70;100353.31;4991144;28;1240;-75
2022/01/30 10:26:18;;;;;;;;;;;;;;;24.61;20.30;100360.38;4985536;28;1196;-76
2022/01/30 10:28:44;;;;;;;;;;;;;;;23.09;22.53;100359.88;4978398;28;1480;-73
2022/01/30 10:31:11;;;;;;;;;;;;;;;26.00;20.01;100372.97;4974944;28;1404;-76
2022/01/30 10:33:39;;;;;;;;;;;;;;;24.24;21.46;100388.84;4984636;28;1494;-75
2022/01/30 10:36:08;;;;;;;;;;;;;;;25.37;20.31;100372.28;4994065;28;1313;-74
2022/01/30 10:38:38;;;;;;;;;;;;;;;23.18;21.82;100386.28;4991051;28;1439;-76
2022/01/30 10:41:12;;;;;;;;;;;;;;;23.61;21.25;100386.78;4982325;28;1975;-76
2022/01/30 10:43:48;;;;;;;;;;;;;;;23.89;21.66;100398.41;4985616;28;1955;-78
2022/01/30 10:46:18;;;;;;;;;;;;;;;23.45;21.50;100388.09;4986476;28;1281;-76
2022/01/30 10:48:50;;;;;;;;;;;;;;;24.03;20.77;100398.34;4993607;28;1179;-75
2022/01/30 10:51:16;;;;;;;;;;;;;;;24.21;20.75;100404.00;4998285;28;1409;-73
2022/01/30 10:53:46;;;;;;;;;;;;;;;25.63;19.75;100409.16;4993621;28;983;-73
2022/01/30 10:56:18;;;;;;;;;;;;;;;22.95;21.92;100413.53;4992267;28;1042;-76
2022/01/30 10:59:04;;;;;;;;;;;;;;;23.53;21.21;100427.50;4992503;28;904;-76
2022/01/30 11:01:30;;;;;;;;;;;;;;;25.08;20.15;100430.25;4994177;28;1973;-72
2022/01/30 11:04:00;;;;;;;;;;;;;;;24.57;20.33;100435.75;4993882;28;983;-74
2022/01/30 11:06:27;;;;;;;;;;;;;;;22.33;22.29;100425.59;4992543;28;837;-76
2022/01/30 11:09:04;;;;;;;;;;;;;;;23.35;21.85;100436.50;4993829;28;1072;-76
2022/01/30 11:11:35;;;;;;;;;;;;;;;22.66;22.34;100437.78;4993609;28;1341;-74
2022/01/30 11:14:14;;;;;;;;;;;;;;;25.31;20.08;100453.72;4993467;28;1019;-73
2022/01/30 11:19:25;;;;;;;;;;;;;;;24.65;20.78;100451.31;4992471;28;1011;-78
2022/01/30 11:21:52;;;;;;;;;;;;;;;23.45;21.44;100460.97;4992274;28;1980;-76
2022/01/30 11:24:20;;;;;;;;;;;;;;;26.56;18.70;100449.66;4993763;28;984;-75
2022/01/30 11:26:47;;;;;;;;;;;;;;;22.71;22.67;100457.38;4993380;28;1003;-76
2022/01/30 11:29:14;;;;;;;;;;;;;;;23.39;21.45;100470.97;4992483;28;825;-75
2022/01/30 11:31:41;;;;;;;;;;;;;;;23.81;20.79;100465.16;4992980;28;1418;-75
2022/01/30 11:34:08;;;;;;;;;;;;;;;25.19;19.94;100473.09;4975182;28;1281;-76
2022/01/30 11:36:35;;;;;;;;;;;;;;;26.48;18.71;100471.41;4975684;28;1200;-74
2022/01/30 11:39:02;;;;;;;;;;;;;;;24.39;20.86;100472.56;5008432;22;3556;-72
2022/01/30 11:41:31;;;;;;;;;;;;;;;26.18;19.11;100480.59;4975124;28;1993;-71
2022/01/30 11:44:23;;;;;;;;;;;;;;;26.41;19.23;100496.53;4991982;28;991;-71
2022/01/30 11:47:04;;;;;;;;;;;;;;;25.56;19.60;100475.94;4992549;28;849;-73
2022/01/30 11:49:38;;;;;;;;;;;;;;;23.59;21.40;100499.72;4992333;28;1421;-72
2022/01/30 11:52:06;;;;;;;;;;;;;;;26.21;19.52;100494.84;4992401;28;1064;-71
2022/01/30 11:54:33;;;;;;;;;;;;;;;24.61;20.95;100493.56;4992072;28;971;-72
2022/01/30 11:57:00;;;;;;;;;;;;;;;23.00;21.56;100500.38;4992428;28;801;-72
2022/01/30 11:59:37;;;;;;;;;;;;;;;24.77;20.20;100501.38;4992166;28;1400;-73
2022/01/30 12:02:22;;;;;;;;;;;;;;;23.22;21.64;100501.06;4991911;28;1985;-73
2022/01/30 12:04:53;;;;;;;;;;;;;;;25.05;19.92;100509.28;4992064;28;970;-73
2022/01/30 12:07:32;;;;;;;;;;;;;;;23.50;21.46;100491.63;4992333;28;1077;-73
2022/01/30 12:10:13;;;;;;;;;;;;;;;25.47;20.23;100497.63;4992037;28;1411;-72
2022/01/30 12:12:48;;;;;;;;;;;;;;;25.79;19.42;100510.53;4992015;28;1241;-72
2022/01/30 12:15:29;;;;;;;;;;;;;;;25.32;19.60;100506.28;4991771;28;1054;-71
2022/01/30 12:17:56;;;;;;;;;;;;;;;24.92;20.28;100517.72;4973753;28;1398;-73
2022/01/30 12:20:23;;;;;;;;;;;;;;;24.57;20.43;100516.22;4991962;28;1258;-73
2022/01/30 12:22:50;;;;;;;;;;;;;;;26.21;18.61;100519.88;4990937;28;1910;-72
2022/01/30 12:25:30;;;;;;;;;;;;;;;26.20;18.74;100515.44;4991749;28;1042;-73
2022/01/30 12:27:59;;;;;;;;;;;;;;;25.48;18.98;100516.00;4990631;28;979;-72
2022/01/30 12:30:36;;;;;;;;;;;;;;;25.96;19.53;100517.16;4991701;28;1393;-71
2022/01/30 12:33:04;;;;;;;;;;;;;;;26.35;18.96;100523.38;4979094;28;1586;-72
2022/01/30 12:35:30;;;;;;;;;;;;;;;25.84;19.42;100524.59;4973833;28;1459;-73
2022/01/30 12:37:56;;;;;;;;;;;;;;;25.65;18.99;100532.06;4971211;28;979;-73
2022/01/30 12:40:23;;;;;;;;;;;;;;;25.56;19.18;100523.16;4955266;28;1513;-74
2022/01/30 12:42:49;;;;;;;;;;;;;;;25.59;19.36;100533.84;4970832;28;2037;-74
2022/01/30 12:45:17;;;;;;;;;;;;;;;24.85;19.45;100545.53;4973316;28;1616;-74
2022/01/30 12:47:47;;;;;;;;;;;;;;;27.99;17.54;100539.78;4991878;28;1050;-75
2022/01/30 12:50:13;;;;;;;;;;;;;;;26.89;17.77;100542.94;4972048;28;1484;-74
2022/01/30 12:52:40;;;;;;;;;;;;;;;28.79;16.62;100542.84;4978444;28;1514;-74
2022/01/30 12:55:10;;;;;;;;;;;;;;;25.03;19.67;100557.78;4990297;28;852;-74
2022/01/30 12:57:37;;;;;;;;;;;;;;;22.33;22.16;100560.22;4991328;28;1502;-74
2022/01/30 13:00:05;;;;;;;;;;;;;;;23.17;21.24;100566.41;4975595;28;1467;-75
2022/01/30 13:02:34;;;;;;;;;;;;;;;24.40;20.38;100554.69;4976134;28;1982;-73
2022/01/30 13:05:00;;;;;;;;;;;;;;;25.79;19.29;100557.78;4991035;28;1057;-73
2022/01/30 13:07:27;;;;;;;;;;;;;;;26.66;17.90;100556.78;4988318;28;1487;-72
2022/01/30 13:10:03;;;;;;;;;;;;;;;23.27;20.86;100568.78;4972266;28;1547;-74
2022/01/30 13:12:31;;;;;;;;;;;;;;;24.34;20.33;100588.00;4977638;28;1520;-71
2022/01/30 13:14:57;;;;;;;;;;;;;;;27.94;17.03;100575.06;4979772;28;1339;-73
2022/01/30 13:17:28;;;;;;;;;;;;;;;26.50;17.87;100573.03;4992389;28;1296;-74
2022/01/30 13:19:55;;;;;;;;;;;;;;;26.73;18.07;100568.69;4983147;28;1384;-72
2022/01/30 13:22:25;;;;;;;;;;;;;;;28.07;16.72;100591.59;4987826;28;1926;-72
2022/01/30 13:24:54;;;;;;;;;;;;;;;26.94;17.69;100588.72;4975450;28;1008;-72
2022/01/30 13:27:20;;;;;;;;;;;;;;;25.47;18.87;100583.75;4986438;28;1457;-73
2022/01/30 13:29:46;;;;;;;;;;;;;;;25.34;18.76;100587.47;4993494;28;1384;-72
2022/01/30 13:32:13;;;;;;;;;;;;;;;27.03;17.64;100601.22;4977743;28;1272;-73
2022/01/30 13:34:40;;;;;;;;;;;;;;;25.23;19.66;100619.56;4993306;28;1292;-73
2022/01/30 13:37:09;;;;;;;;;;;;;;;25.56;19.18;100610.16;4992741;28;1566;-74
2022/01/30 13:39:40;;;;;;;;;;;;;;;24.33;20.06;100609.38;4994657;28;1343;-70
2022/01/30 13:42:26;;;;;;;;;;;;;;;25.20;19.09;100608.94;4977836;28;1915;-73
2022/01/30 13:45:05;;;;;;;;;;;;;;;27.32;17.55;100615.38;4984730;28;1496;-72
2022/01/30 13:47:31;;;;;;;;;;;;;;;24.69;19.83;100604.31;4973546;28;1535;-72
2022/01/30 13:49:57;;;;;;;;;;;;;;;25.13;19.23;100618.38;4975061;28;1326;-72
2022/01/30 13:52:30;;;;;;;;;;;;;;;26.82;18.23;100610.97;4990647;28;1463;-74